sensor_id;sensor_type;location;lat;lon;timestamp;P1;durP1;ratioP1;P2;durP2;ratioP2
31037;SDS011;17702;47.590;7.666;2022-07-18T00:01:29;1.77;;;1.67;;
31037;SDS011;17702;47.590;7.666;2022-07-18T00:03:55;2.17;;;1.98;;
31037;SDS011;17702;47.590;7.666;2022-07-18T00:06:21;5.25;;;2.20;;
31037;SDS011;17702;47.590;7.666;2022-07-18T00:08:46;4.72;;;2.40;;
31037;SDS011;17702;47.590;7.666;2022-07-18T00:11:12;2.38;;;2.28;;
31037;SDS011;17702;47.590;7.666;2022-07-18T00:13:38;3.10;;;2.28;;
31037;SDS011;17702;47.590;7.666;2022-07-18T00:16:03;2.78;;;2.45;;
31037;SDS011;17702;47.590;7.666;2022-07-18T00:18:29;2.67;;;2.47;;
31037;SDS011;17702;47.590;7.666;2022-07-18T00:20:55;2.70;;;2.15;;
31037;SDS011;17702;47.590;7.666;2022-07-18T00:23:21;4.00;;;2.70;;
31037;SDS011;17702;47.590;7.666;2022-07-18T00:25:47;3.85;;;2.38;;
31037;SDS011;17702;47.590;7.666;2022-07-18T00:28:13;2.63;;;2.42;;
31037;SDS011;17702;47.590;7.666;2022-07-18T00:30:39;2.50;;;2.30;;
31037;SDS011;17702;47.590;7.666;2022-07-18T00:33:05;2.65;;;2.38;;
31037;SDS011;17702;47.590;7.666;2022-07-18T00:35:30;2.83;;;2.28;;
31037;SDS011;17702;47.590;7.666;2022-07-18T00:37:56;2.88;;;2.47;;
31037;SDS011;17702;47.590;7.666;2022-07-18T00:40:21;2.13;;;2.00;;
31037;SDS011;17702;47.590;7.666;2022-07-18T00:42:47;3.00;;;2.60;;
31037;SDS011;17702;47.590;7.666;2022-07-18T00:45:13;3.00;;;2.33;;
31037;SDS011;17702;47.590;7.666;2022-07-18T00:47:39;2.47;;;2.30;;
31037;SDS011;17702;47.590;7.666;2022-07-18T00:50:05;2.53;;;2.35;;
31037;SDS011;17702;47.590;7.666;2022-07-18T00:52:32;2.60;;;2.22;;
31037;SDS011;17702;47.590;7.666;2022-07-18T00:54:58;4.00;;;2.25;;
31037;SDS011;17702;47.590;7.666;2022-07-18T00:57:24;3.70;;;2.45;;
31037;SDS011;17702;47.590;7.666;2022-07-18T00:59:50;6.30;;;2.80;;
31037;SDS011;17702;47.590;7.666;2022-07-18T01:02:35;2.05;;;1.95;;
31037;SDS011;17702;47.590;7.666;2022-07-18T01:05:01;3.45;;;2.72;;
31037;SDS011;17702;47.590;7.666;2022-07-18T01:07:27;3.58;;;2.58;;
31037;SDS011;17702;47.590;7.666;2022-07-18T01:09:53;3.50;;;3.03;;
31037;SDS011;17702;47.590;7.666;2022-07-18T01:12:19;7.25;;;2.85;;
31037;SDS011;17702;47.590;7.666;2022-07-18T01:14:45;4.32;;;2.78;;
31037;SDS011;17702;47.590;7.666;2022-07-18T01:17:12;3.83;;;2.72;;
31037;SDS011;17702;47.590;7.666;2022-07-18T01:19:42;2.85;;;2.65;;
31037;SDS011;17702;47.590;7.666;2022-07-18T01:22:08;2.72;;;2.63;;
31037;SDS011;17702;47.590;7.666;2022-07-18T01:24:34;3.03;;;2.83;;
31037;SDS011;17702;47.590;7.666;2022-07-18T01:26:59;3.22;;;2.75;;
31037;SDS011;17702;47.590;7.666;2022-07-18T01:29:25;7.18;;;2.95;;
31037;SDS011;17702;47.590;7.666;2022-07-18T01:31:51;4.40;;;2.90;;
31037;SDS011;17702;47.590;7.666;2022-07-18T01:34:23;2.78;;;2.58;;
31037;SDS011;17702;47.590;7.666;2022-07-18T01:36:48;2.63;;;2.50;;
31037;SDS011;17702;47.590;7.666;2022-07-18T01:39:14;3.25;;;2.88;;
31037;SDS011;17702;47.590;7.666;2022-07-18T01:41:40;2.80;;;2.60;;
31037;SDS011;17702;47.590;7.666;2022-07-18T01:44:06;2.92;;;2.78;;
31037;SDS011;17702;47.590;7.666;2022-07-18T01:46:32;3.33;;;2.45;;
31037;SDS011;17702;47.590;7.666;2022-07-18T01:48:57;3.67;;;2.85;;
31037;SDS011;17702;47.590;7.666;2022-07-18T01:51:23;2.55;;;2.35;;
31037;SDS011;17702;47.590;7.666;2022-07-18T01:53:56;3.17;;;2.97;;
31037;SDS011;17702;47.590;7.666;2022-07-18T01:56:24;4.38;;;2.35;;
31037;SDS011;17702;47.590;7.666;2022-07-18T01:58:50;2.78;;;2.67;;
31037;SDS011;17702;47.590;7.666;2022-07-18T02:01:16;2.85;;;2.65;;
31037;SDS011;17702;47.590;7.666;2022-07-18T02:03:42;2.75;;;2.58;;
31037;SDS011;17702;47.590;7.666;2022-07-18T02:06:07;3.38;;;2.47;;
31037;SDS011;17702;47.590;7.666;2022-07-18T02:08:33;2.58;;;2.38;;
31037;SDS011;17702;47.590;7.666;2022-07-18T02:10:58;2.40;;;2.20;;
31037;SDS011;17702;47.590;7.666;2022-07-18T02:13:24;3.65;;;2.60;;
31037;SDS011;17702;47.590;7.666;2022-07-18T02:15:50;3.70;;;2.67;;
31037;SDS011;17702;47.590;7.666;2022-07-18T02:18:15;2.92;;;2.10;;
31037;SDS011;17702;47.590;7.666;2022-07-18T02:20:41;4.40;;;2.72;;
31037;SDS011;17702;47.590;7.666;2022-07-18T02:23:07;3.25;;;2.42;;
31037;SDS011;17702;47.590;7.666;2022-07-18T02:25:33;3.20;;;2.83;;
31037;SDS011;17702;47.590;7.666;2022-07-18T02:27:59;4.00;;;2.80;;
31037;SDS011;17702;47.590;7.666;2022-07-18T02:30:25;2.80;;;2.70;;
31037;SDS011;17702;47.590;7.666;2022-07-18T02:32:51;2.90;;;2.70;;
31037;SDS011;17702;47.590;7.666;2022-07-18T02:35:16;4.25;;;3.00;;
31037;SDS011;17702;47.590;7.666;2022-07-18T02:37:42;2.75;;;2.55;;
31037;SDS011;17702;47.590;7.666;2022-07-18T02:40:08;3.47;;;2.42;;
31037;SDS011;17702;47.590;7.666;2022-07-18T02:42:35;6.78;;;2.72;;
31037;SDS011;17702;47.590;7.666;2022-07-18T02:45:02;3.20;;;2.85;;
31037;SDS011;17702;47.590;7.666;2022-07-18T02:47:28;5.05;;;2.83;;
31037;SDS011;17702;47.590;7.666;2022-07-18T02:49:54;3.20;;;2.42;;
31037;SDS011;17702;47.590;7.666;2022-07-18T02:52:20;3.05;;;2.60;;
31037;SDS011;17702;47.590;7.666;2022-07-18T02:54:46;4.35;;;2.67;;
31037;SDS011;17702;47.590;7.666;2022-07-18T02:57:12;2.95;;;2.78;;
31037;SDS011;17702;47.590;7.666;2022-07-18T02:59:37;3.75;;;3.13;;
31037;SDS011;17702;47.590;7.666;2022-07-18T03:02:03;3.35;;;3.15;;
31037;SDS011;17702;47.590;7.666;2022-07-18T03:04:29;3.58;;;3.33;;
31037;SDS011;17702;47.590;7.666;2022-07-18T03:06:55;2.67;;;2.58;;
31037;SDS011;17702;47.590;7.666;2022-07-18T03:09:20;4.18;;;2.88;;
31037;SDS011;17702;47.590;7.666;2022-07-18T03:11:46;3.30;;;2.60;;
31037;SDS011;17702;47.590;7.666;2022-07-18T03:14:12;3.03;;;2.83;;
31037;SDS011;17702;47.590;7.666;2022-07-18T03:16:38;3.20;;;2.95;;
31037;SDS011;17702;47.590;7.666;2022-07-18T03:19:04;5.78;;;3.28;;
31037;SDS011;17702;47.590;7.666;2022-07-18T03:21:30;3.88;;;3.05;;
31037;SDS011;17702;47.590;7.666;2022-07-18T03:23:56;3.10;;;2.88;;
31037;SDS011;17702;47.590;7.666;2022-07-18T03:26:21;3.22;;;2.95;;
31037;SDS011;17702;47.590;7.666;2022-07-18T03:28:47;3.58;;;3.28;;
31037;SDS011;17702;47.590;7.666;2022-07-18T03:31:13;3.40;;;3.20;;
31037;SDS011;17702;47.590;7.666;2022-07-18T03:33:39;5.80;;;3.20;;
31037;SDS011;17702;47.590;7.666;2022-07-18T03:36:05;4.13;;;3.25;;
31037;SDS011;17702;47.590;7.666;2022-07-18T03:38:31;3.92;;;3.35;;
31037;SDS011;17702;47.590;7.666;2022-07-18T03:40:57;5.70;;;3.03;;
31037;SDS011;17702;47.590;7.666;2022-07-18T03:43:22;3.30;;;2.95;;
31037;SDS011;17702;47.590;7.666;2022-07-18T03:45:48;3.58;;;3.17;;
31037;SDS011;17702;47.590;7.666;2022-07-18T03:48:14;3.03;;;2.83;;
31037;SDS011;17702;47.590;7.666;2022-07-18T03:50:39;3.33;;;3.13;;
31037;SDS011;17702;47.590;7.666;2022-07-18T03:53:05;5.75;;;3.42;;
31037;SDS011;17702;47.590;7.666;2022-07-18T03:55:31;5.15;;;3.53;;
31037;SDS011;17702;47.590;7.666;2022-07-18T03:57:57;5.00;;;3.47;;
31037;SDS011;17702;47.590;7.666;2022-07-18T04:00:22;3.53;;;3.33;;
31037;SDS011;17702;47.590;7.666;2022-07-18T04:02:48;4.07;;;3.50;;
31037;SDS011;17702;47.590;7.666;2022-07-18T04:05:14;4.07;;;3.67;;
31037;SDS011;17702;47.590;7.666;2022-07-18T04:07:40;3.50;;;3.30;;
31037;SDS011;17702;47.590;7.666;2022-07-18T04:10:07;3.20;;;3.00;;
31037;SDS011;17702;47.590;7.666;2022-07-18T04:12:34;5.15;;;3.88;;
31037;SDS011;17702;47.590;7.666;2022-07-18T04:15:08;4.20;;;3.60;;
31037;SDS011;17702;47.590;7.666;2022-07-18T04:17:34;3.50;;;3.25;;
31037;SDS011;17702;47.590;7.666;2022-07-18T04:20:00;4.00;;;3.70;;
31037;SDS011;17702;47.590;7.666;2022-07-18T04:22:25;4.18;;;3.80;;
31037;SDS011;17702;47.590;7.666;2022-07-18T04:24:51;7.65;;;4.38;;
31037;SDS011;17702;47.590;7.666;2022-07-18T04:27:17;3.63;;;3.42;;
31037;SDS011;17702;47.590;7.666;2022-07-18T04:29:42;4.30;;;4.00;;
31037;SDS011;17702;47.590;7.666;2022-07-18T04:32:08;4.60;;;4.30;;
31037;SDS011;17702;47.590;7.666;2022-07-18T04:34:33;4.60;;;4.32;;
31037;SDS011;17702;47.590;7.666;2022-07-18T04:36:59;5.22;;;3.83;;
31037;SDS011;17702;47.590;7.666;2022-07-18T04:39:25;4.25;;;3.83;;
31037;SDS011;17702;47.590;7.666;2022-07-18T04:41:50;4.45;;;4.15;;
31037;SDS011;17702;47.590;7.666;2022-07-18T04:44:16;6.20;;;3.72;;
31037;SDS011;17702;47.590;7.666;2022-07-18T04:46:41;4.85;;;4.45;;
31037;SDS011;17702;47.590;7.666;2022-07-18T04:49:07;4.78;;;4.38;;
31037;SDS011;17702;47.590;7.666;2022-07-18T04:51:33;4.65;;;4.35;;
31037;SDS011;17702;47.590;7.666;2022-07-18T04:53:58;5.30;;;4.55;;
31037;SDS011;17702;47.590;7.666;2022-07-18T04:56:24;5.18;;;4.78;;
31037;SDS011;17702;47.590;7.666;2022-07-18T04:58:50;4.13;;;3.83;;
31037;SDS011;17702;47.590;7.666;2022-07-18T05:01:16;9.38;;;3.97;;
31037;SDS011;17702;47.590;7.666;2022-07-18T05:03:41;7.90;;;4.35;;
31037;SDS011;17702;47.590;7.666;2022-07-18T05:06:07;4.85;;;4.35;;
31037;SDS011;17702;47.590;7.666;2022-07-18T05:08:32;5.68;;;5.15;;
31037;SDS011;17702;47.590;7.666;2022-07-18T05:10:58;5.13;;;4.63;;
31037;SDS011;17702;47.590;7.666;2022-07-18T05:13:24;6.28;;;5.68;;
31037;SDS011;17702;47.590;7.666;2022-07-18T05:15:49;5.70;;;4.60;;
31037;SDS011;17702;47.590;7.666;2022-07-18T05:18:15;5.07;;;4.55;;
31037;SDS011;17702;47.590;7.666;2022-07-18T05:20:41;5.05;;;4.55;;
31037;SDS011;17702;47.590;7.666;2022-07-18T05:23:07;4.63;;;4.25;;
31037;SDS011;17702;47.590;7.666;2022-07-18T05:25:33;6.05;;;4.45;;
31037;SDS011;17702;47.590;7.666;2022-07-18T05:27:59;4.53;;;4.15;;
31037;SDS011;17702;47.590;7.666;2022-07-18T05:30:24;4.88;;;4.47;;
31037;SDS011;17702;47.590;7.666;2022-07-18T05:32:50;5.00;;;4.55;;
31037;SDS011;17702;47.590;7.666;2022-07-18T05:35:17;4.53;;;4.22;;
31037;SDS011;17702;47.590;7.666;2022-07-18T05:37:43;4.28;;;3.97;;
31037;SDS011;17702;47.590;7.666;2022-07-18T05:40:10;4.15;;;3.90;;
31037;SDS011;17702;47.590;7.666;2022-07-18T05:42:37;5.10;;;4.60;;
31037;SDS011;17702;47.590;7.666;2022-07-18T05:45:03;9.90;;;4.50;;
31037;SDS011;17702;47.590;7.666;2022-07-18T05:47:29;5.03;;;4.03;;
31037;SDS011;17702;47.590;7.666;2022-07-18T05:49:55;8.55;;;4.32;;
31037;SDS011;17702;47.590;7.666;2022-07-18T05:52:21;5.53;;;3.80;;
31037;SDS011;17702;47.590;7.666;2022-07-18T05:54:46;6.57;;;3.88;;
31037;SDS011;17702;47.590;7.666;2022-07-18T05:57:12;7.18;;;4.10;;
31037;SDS011;17702;47.590;7.666;2022-07-18T05:59:38;5.30;;;4.03;;
31037;SDS011;17702;47.590;7.666;2022-07-18T06:02:03;6.45;;;3.88;;
31037;SDS011;17702;47.590;7.666;2022-07-18T06:04:29;9.25;;;3.92;;
31037;SDS011;17702;47.590;7.666;2022-07-18T06:06:54;5.00;;;3.67;;
31037;SDS011;17702;47.590;7.666;2022-07-18T06:09:20;5.82;;;3.40;;
31037;SDS011;17702;47.590;7.666;2022-07-18T06:11:46;3.80;;;3.40;;
31037;SDS011;17702;47.590;7.666;2022-07-18T06:14:11;8.35;;;3.88;;
31037;SDS011;17702;47.590;7.666;2022-07-18T06:16:37;9.90;;;4.00;;
31037;SDS011;17702;47.590;7.666;2022-07-18T06:19:03;8.15;;;3.53;;
31037;SDS011;17702;47.590;7.666;2022-07-18T06:21:29;6.93;;;3.70;;
31037;SDS011;17702;47.590;7.666;2022-07-18T06:23:54;9.15;;;3.90;;
31037;SDS011;17702;47.590;7.666;2022-07-18T06:26:20;6.93;;;3.58;;
31037;SDS011;17702;47.590;7.666;2022-07-18T06:28:46;9.88;;;3.70;;
31037;SDS011;17702;47.590;7.666;2022-07-18T06:31:12;4.93;;;3.08;;
31037;SDS011;17702;47.590;7.666;2022-07-18T06:33:41;4.10;;;2.92;;
31037;SDS011;17702;47.590;7.666;2022-07-18T06:36:07;3.55;;;3.25;;
31037;SDS011;17702;47.590;7.666;2022-07-18T06:38:33;4.55;;;3.58;;
31037;SDS011;17702;47.590;7.666;2022-07-18T06:40:59;3.47;;;3.28;;
31037;SDS011;17702;47.590;7.666;2022-07-18T06:43:24;3.97;;;2.92;;
31037;SDS011;17702;47.590;7.666;2022-07-18T06:45:50;3.28;;;3.00;;
31037;SDS011;17702;47.590;7.666;2022-07-18T06:48:17;4.22;;;3.20;;
31037;SDS011;17702;47.590;7.666;2022-07-18T06:50:43;8.65;;;3.50;;
31037;SDS011;17702;47.590;7.666;2022-07-18T06:53:09;2.78;;;2.65;;
31037;SDS011;17702;47.590;7.666;2022-07-18T06:55:35;4.90;;;2.80;;
31037;SDS011;17702;47.590;7.666;2022-07-18T06:58:00;4.28;;;2.60;;
31037;SDS011;17702;47.590;7.666;2022-07-18T07:00:26;5.18;;;3.00;;
31037;SDS011;17702;47.590;7.666;2022-07-18T07:02:52;3.72;;;2.97;;
31037;SDS011;17702;47.590;7.666;2022-07-18T07:05:18;3.65;;;3.33;;
31037;SDS011;17702;47.590;7.666;2022-07-18T07:07:45;4.35;;;2.70;;
31037;SDS011;17702;47.590;7.666;2022-07-18T07:10:11;2.80;;;2.60;;
31037;SDS011;17702;47.590;7.666;2022-07-18T07:12:37;3.67;;;2.90;;
31037;SDS011;17702;47.590;7.666;2022-07-18T07:15:08;8.50;;;2.67;;
31037;SDS011;17702;47.590;7.666;2022-07-18T07:17:34;2.92;;;2.58;;
31037;SDS011;17702;47.590;7.666;2022-07-18T07:20:01;6.75;;;2.53;;
31037;SDS011;17702;47.590;7.666;2022-07-18T07:22:31;2.92;;;2.30;;
31037;SDS011;17702;47.590;7.666;2022-07-18T07:24:57;2.38;;;2.17;;
31037;SDS011;17702;47.590;7.666;2022-07-18T07:27:23;3.05;;;2.53;;
31037;SDS011;17702;47.590;7.666;2022-07-18T07:29:48;2.47;;;2.28;;
31037;SDS011;17702;47.590;7.666;2022-07-18T07:32:14;2.67;;;2.47;;
31037;SDS011;17702;47.590;7.666;2022-07-18T07:34:40;2.70;;;2.42;;
31037;SDS011;17702;47.590;7.666;2022-07-18T07:37:05;4.38;;;2.00;;
31037;SDS011;17702;47.590;7.666;2022-07-18T07:39:31;2.55;;;2.35;;
31037;SDS011;17702;47.590;7.666;2022-07-18T07:41:56;4.57;;;2.20;;
31037;SDS011;17702;47.590;7.666;2022-07-18T07:44:22;2.58;;;2.38;;
31037;SDS011;17702;47.590;7.666;2022-07-18T07:46:48;6.82;;;2.50;;
31037;SDS011;17702;47.590;7.666;2022-07-18T07:49:14;4.95;;;2.67;;
31037;SDS011;17702;47.590;7.666;2022-07-18T07:51:40;2.95;;;2.60;;
31037;SDS011;17702;47.590;7.666;2022-07-18T07:54:06;2.75;;;2.08;;
31037;SDS011;17702;47.590;7.666;2022-07-18T07:56:31;3.22;;;2.90;;
31037;SDS011;17702;47.590;7.666;2022-07-18T07:58:57;8.10;;;2.70;;
31037;SDS011;17702;47.590;7.666;2022-07-18T08:01:23;6.97;;;2.15;;
31037;SDS011;17702;47.590;7.666;2022-07-18T08:03:48;4.50;;;2.33;;
31037;SDS011;17702;47.590;7.666;2022-07-18T08:06:15;3.95;;;2.33;;
31037;SDS011;17702;47.590;7.666;2022-07-18T08:08:40;4.07;;;2.20;;
31037;SDS011;17702;47.590;7.666;2022-07-18T08:11:06;2.30;;;2.10;;
31037;SDS011;17702;47.590;7.666;2022-07-18T08:13:32;5.47;;;2.45;;
31037;SDS011;17702;47.590;7.666;2022-07-18T08:15:58;2.25;;;1.88;;
31037;SDS011;17702;47.590;7.666;2022-07-18T08:18:23;8.27;;;2.40;;
31037;SDS011;17702;47.590;7.666;2022-07-18T08:20:49;2.75;;;2.13;;
31037;SDS011;17702;47.590;7.666;2022-07-18T08:23:14;4.18;;;2.25;;
31037;SDS011;17702;47.590;7.666;2022-07-18T08:25:42;2.40;;;2.25;;
31037;SDS011;17702;47.590;7.666;2022-07-18T08:28:09;2.33;;;1.92;;
31037;SDS011;17702;47.590;7.666;2022-07-18T08:30:37;3.55;;;2.10;;
31037;SDS011;17702;47.590;7.666;2022-07-18T08:33:03;4.28;;;1.90;;
31037;SDS011;17702;47.590;7.666;2022-07-18T08:35:30;4.72;;;2.45;;
31037;SDS011;17702;47.590;7.666;2022-07-18T08:37:57;3.22;;;2.05;;
31037;SDS011;17702;47.590;7.666;2022-07-18T08:40:23;6.75;;;2.00;;
31037;SDS011;17702;47.590;7.666;2022-07-18T08:42:50;5.45;;;1.90;;
31037;SDS011;17702;47.590;7.666;2022-07-18T08:45:19;2.35;;;2.15;;
31037;SDS011;17702;47.590;7.666;2022-07-18T08:47:47;8.67;;;3.03;;
31037;SDS011;17702;47.590;7.666;2022-07-18T08:50:13;7.18;;;2.15;;
31037;SDS011;17702;47.590;7.666;2022-07-18T08:52:39;7.93;;;2.25;;
31037;SDS011;17702;47.590;7.666;2022-07-18T08:55:06;3.00;;;2.17;;
31037;SDS011;17702;47.590;7.666;2022-07-18T08:57:32;5.57;;;2.50;;
31037;SDS011;17702;47.590;7.666;2022-07-18T08:59:58;2.00;;;1.90;;
31037;SDS011;17702;47.590;7.666;2022-07-18T09:02:27;4.72;;;2.38;;
31037;SDS011;17702;47.590;7.666;2022-07-18T09:04:53;4.53;;;2.30;;
31037;SDS011;17702;47.590;7.666;2022-07-18T09:07:23;3.63;;;2.13;;
31037;SDS011;17702;47.590;7.666;2022-07-18T09:09:56;2.25;;;2.03;;
31037;SDS011;17702;47.590;7.666;2022-07-18T09:12:27;3.65;;;2.10;;
31037;SDS011;17702;47.590;7.666;2022-07-18T09:14:56;4.57;;;2.45;;
31037;SDS011;17702;47.590;7.666;2022-07-18T09:17:24;4.05;;;1.83;;
31037;SDS011;17702;47.590;7.666;2022-07-18T09:22:39;3.25;;;2.00;;
31037;SDS011;17702;47.590;7.666;2022-07-18T09:25:12;4.93;;;2.03;;
31037;SDS011;17702;47.590;7.666;2022-07-18T09:27:43;3.28;;;2.20;;
31037;SDS011;17702;47.590;7.666;2022-07-18T09:30:23;10.52;;;2.30;;
31037;SDS011;17702;47.590;7.666;2022-07-18T09:35:28;3.97;;;2.47;;
31037;SDS011;17702;47.590;7.666;2022-07-18T09:38:03;268.35;;;241.63;;
31037;SDS011;17702;47.590;7.666;2022-07-18T09:40:29;163.23;;;147.32;;
31037;SDS011;17702;47.590;7.666;2022-07-18T09:43:04;249.75;;;225.68;;
31037;SDS011;17702;47.590;7.666;2022-07-18T09:45:35;101.07;;;86.82;;
31037;SDS011;17702;47.590;7.666;2022-07-18T09:50:29;81.32;;;67.47;;
31037;SDS011;17702;47.590;7.666;2022-07-18T09:53:06;53.42;;;43.72;;
31037;SDS011;17702;47.590;7.666;2022-07-18T09:55:41;19.40;;;12.98;;
31037;SDS011;17702;47.590;7.666;2022-07-18T09:58:08;2.08;;;1.90;;
31037;SDS011;17702;47.590;7.666;2022-07-18T10:00:35;6.53;;;2.20;;
31037;SDS011;17702;47.590;7.666;2022-07-18T10:03:02;3.55;;;2.00;;
31037;SDS011;17702;47.590;7.666;2022-07-18T10:05:30;3.97;;;1.92;;
31037;SDS011;17702;47.590;7.666;2022-07-18T10:07:58;2.25;;;2.03;;
31037;SDS011;17702;47.590;7.666;2022-07-18T10:10:25;5.53;;;1.80;;
31037;SDS011;17702;47.590;7.666;2022-07-18T10:12:56;2.97;;;2.05;;
31037;SDS011;17702;47.590;7.666;2022-07-18T10:15:25;2.45;;;1.80;;
31037;SDS011;17702;47.590;7.666;2022-07-18T10:17:55;3.72;;;1.70;;
31037;SDS011;17702;47.590;7.666;2022-07-18T10:20:32;1.92;;;1.75;;
31037;SDS011;17702;47.590;7.666;2022-07-18T10:23:02;2.35;;;1.60;;
31037;SDS011;17702;47.590;7.666;2022-07-18T10:25:42;3.88;;;1.90;;
31037;SDS011;17702;47.590;7.666;2022-07-18T10:28:12;2.13;;;1.98;;
31037;SDS011;17702;47.590;7.666;2022-07-18T10:33:36;2.80;;;1.83;;
31037;SDS011;17702;47.590;7.666;2022-07-18T10:36:07;3.67;;;2.05;;
31037;SDS011;17702;47.590;7.666;2022-07-18T10:38:34;2.13;;;1.83;;
31037;SDS011;17702;47.590;7.666;2022-07-18T10:41:01;2.20;;;1.98;;
31037;SDS011;17702;47.590;7.666;2022-07-18T10:43:41;1.92;;;1.73;;
31037;SDS011;17702;47.590;7.666;2022-07-18T10:46:08;3.25;;;2.00;;
31037;SDS011;17702;47.590;7.666;2022-07-18T10:51:01;2.40;;;1.70;;
31037;SDS011;17702;47.590;7.666;2022-07-18T10:53:54;2.20;;;1.45;;
31037;SDS011;17702;47.590;7.666;2022-07-18T10:59:16;1.42;;;1.33;;
31037;SDS011;17702;47.590;7.666;2022-07-18T11:01:47;3.28;;;1.90;;
31037;SDS011;17702;47.590;7.666;2022-07-18T11:04:28;5.07;;;1.50;;
31037;SDS011;17702;47.590;7.666;2022-07-18T11:06:56;2.55;;;1.75;;
31037;SDS011;17702;47.590;7.666;2022-07-18T11:15:03;1.55;;;1.45;;
31037;SDS011;17702;47.590;7.666;2022-07-18T11:25:45;1.70;;;1.60;;
31037;SDS011;17702;47.590;7.666;2022-07-18T11:28:12;1.73;;;1.48;;
31037;SDS011;17702;47.590;7.666;2022-07-18T11:30:38;2.10;;;1.40;;
31037;SDS011;17702;47.590;7.666;2022-07-18T11:33:04;1.95;;;1.30;;
31037;SDS011;17702;47.590;7.666;2022-07-18T11:35:31;3.53;;;1.35;;
31037;SDS011;17702;47.590;7.666;2022-07-18T11:37:58;3.50;;;1.48;;
31037;SDS011;17702;47.590;7.666;2022-07-18T11:40:29;6.57;;;1.70;;
31037;SDS011;17702;47.590;7.666;2022-07-18T11:42:58;4.03;;;1.40;;
31037;SDS011;17702;47.590;7.666;2022-07-18T11:45:23;1.00;;;1.00;;
31037;SDS011;17702;47.590;7.666;2022-07-18T11:47:50;1.67;;;1.23;;
31037;SDS011;17702;47.590;7.666;2022-07-18T11:50:26;1.17;;;1.10;;
31037;SDS011;17702;47.590;7.666;2022-07-18T11:53:00;3.25;;;1.50;;
31037;SDS011;17702;47.590;7.666;2022-07-18T11:55:35;2.15;;;1.10;;
31037;SDS011;17702;47.590;7.666;2022-07-18T11:58:05;1.15;;;1.10;;
31037;SDS011;17702;47.590;7.666;2022-07-18T12:00:46;1.30;;;1.20;;
31037;SDS011;17702;47.590;7.666;2022-07-18T12:05:41;1.30;;;1.20;;
31037;SDS011;17702;47.590;7.666;2022-07-18T12:08:30;3.25;;;1.10;;
31037;SDS011;17702;47.590;7.666;2022-07-18T12:13:40;5.25;;;1.88;;
31037;SDS011;17702;47.590;7.666;2022-07-18T12:16:06;4.57;;;1.55;;
31037;SDS011;17702;47.590;7.666;2022-07-18T12:18:32;1.60;;;1.50;;
31037;SDS011;17702;47.590;7.666;2022-07-18T12:21:08;1.58;;;1.33;;
31037;SDS011;17702;47.590;7.666;2022-07-18T12:23:34;1.42;;;1.33;;
31037;SDS011;17702;47.590;7.666;2022-07-18T12:26:00;2.72;;;1.52;;
31037;SDS011;17702;47.590;7.666;2022-07-18T12:28:28;2.60;;;1.63;;
31037;SDS011;17702;47.590;7.666;2022-07-18T12:30:54;1.40;;;1.30;;
31037;SDS011;17702;47.590;7.666;2022-07-18T12:33:20;1.40;;;1.30;;
31037;SDS011;17702;47.590;7.666;2022-07-18T12:35:48;2.45;;;1.50;;
31037;SDS011;17702;47.590;7.666;2022-07-18T12:38:20;2.67;;;1.40;;
31037;SDS011;17702;47.590;7.666;2022-07-18T12:45:53;3.15;;;1.40;;
31037;SDS011;17702;47.590;7.666;2022-07-18T12:48:21;1.95;;;1.42;;
31037;SDS011;17702;47.590;7.666;2022-07-18T12:50:55;2.25;;;1.63;;
31037;SDS011;17702;47.590;7.666;2022-07-18T12:53:31;1.67;;;1.58;;
31037;SDS011;17702;47.590;7.666;2022-07-18T12:56:00;3.58;;;1.80;;
31037;SDS011;17702;47.590;7.666;2022-07-18T12:58:25;1.73;;;1.60;;
31037;SDS011;17702;47.590;7.666;2022-07-18T13:00:51;2.03;;;1.85;;
31037;SDS011;17702;47.590;7.666;2022-07-18T13:03:17;3.05;;;2.00;;
31037;SDS011;17702;47.590;7.666;2022-07-18T13:05:42;2.35;;;2.00;;
31037;SDS011;17702;47.590;7.666;2022-07-18T13:08:08;3.85;;;1.63;;
31037;SDS011;17702;47.590;7.666;2022-07-18T13:10:35;2.55;;;1.63;;
31037;SDS011;17702;47.590;7.666;2022-07-18T13:13:05;1.70;;;1.60;;
31037;SDS011;17702;47.590;7.666;2022-07-18T13:15:32;2.75;;;1.67;;
31037;SDS011;17702;47.590;7.666;2022-07-18T13:17:58;5.55;;;2.00;;
31037;SDS011;17702;47.590;7.666;2022-07-18T13:20:23;3.83;;;1.95;;
31037;SDS011;17702;47.590;7.666;2022-07-18T13:22:50;4.47;;;1.63;;
31037;SDS011;17702;47.590;7.666;2022-07-18T13:25:16;2.38;;;1.90;;
31037;SDS011;17702;47.590;7.666;2022-07-18T13:27:41;1.85;;;1.63;;
31037;SDS011;17702;47.590;7.666;2022-07-18T13:30:07;2.33;;;1.83;;
31037;SDS011;17702;47.590;7.666;2022-07-18T13:32:34;1.92;;;1.60;;
31037;SDS011;17702;47.590;7.666;2022-07-18T13:35:00;3.35;;;1.90;;
31037;SDS011;17702;47.590;7.666;2022-07-18T13:37:26;5.05;;;2.00;;
31037;SDS011;17702;47.590;7.666;2022-07-18T13:39:52;2.63;;;1.80;;
31037;SDS011;17702;47.590;7.666;2022-07-18T13:42:17;2.92;;;1.98;;
31037;SDS011;17702;47.590;7.666;2022-07-18T13:44:43;2.17;;;1.67;;
31037;SDS011;17702;47.590;7.666;2022-07-18T13:47:12;4.63;;;1.95;;
31037;SDS011;17702;47.590;7.666;2022-07-18T13:49:38;2.05;;;1.80;;
31037;SDS011;17702;47.590;7.666;2022-07-18T13:52:04;3.25;;;2.25;;
31037;SDS011;17702;47.590;7.666;2022-07-18T13:54:29;2.85;;;1.92;;
31037;SDS011;17702;47.590;7.666;2022-07-18T13:56:55;2.20;;;1.98;;
31037;SDS011;17702;47.590;7.666;2022-07-18T13:59:21;2.60;;;2.28;;
31037;SDS011;17702;47.590;7.666;2022-07-18T14:01:46;3.67;;;1.88;;
31037;SDS011;17702;47.590;7.666;2022-07-18T14:04:12;2.55;;;1.75;;
31037;SDS011;17702;47.590;7.666;2022-07-18T14:06:38;8.65;;;2.53;;
31037;SDS011;17702;47.590;7.666;2022-07-18T14:09:04;3.85;;;1.70;;
31037;SDS011;17702;47.590;7.666;2022-07-18T14:11:30;2.67;;;2.13;;
31037;SDS011;17702;47.590;7.666;2022-07-18T14:14:02;2.58;;;2.03;;
31037;SDS011;17702;47.590;7.666;2022-07-18T14:16:28;7.80;;;2.20;;
31037;SDS011;17702;47.590;7.666;2022-07-18T14:18:55;5.22;;;2.53;;
31037;SDS011;17702;47.590;7.666;2022-07-18T14:21:21;13.02;;;2.15;;
31037;SDS011;17702;47.590;7.666;2022-07-18T14:23:46;3.53;;;1.90;;
31037;SDS011;17702;47.590;7.666;2022-07-18T14:26:12;5.63;;;1.98;;
31037;SDS011;17702;47.590;7.666;2022-07-18T14:28:38;4.20;;;2.10;;
31037;SDS011;17702;47.590;7.666;2022-07-18T14:31:03;4.10;;;1.90;;
31037;SDS011;17702;47.590;7.666;2022-07-18T14:33:29;4.75;;;2.10;;
31037;SDS011;17702;47.590;7.666;2022-07-18T14:35:55;2.33;;;2.10;;
31037;SDS011;17702;47.590;7.666;2022-07-18T14:38:20;3.60;;;1.88;;
31037;SDS011;17702;47.590;7.666;2022-07-18T14:40:46;5.72;;;2.03;;
31037;SDS011;17702;47.590;7.666;2022-07-18T14:43:11;3.58;;;2.65;;
31037;SDS011;17702;47.590;7.666;2022-07-18T14:45:37;3.55;;;2.30;;
31037;SDS011;17702;47.590;7.666;2022-07-18T14:48:03;3.90;;;2.42;;
31037;SDS011;17702;47.590;7.666;2022-07-18T14:50:29;3.13;;;1.75;;
31037;SDS011;17702;47.590;7.666;2022-07-18T14:52:54;2.22;;;2.03;;
31037;SDS011;17702;47.590;7.666;2022-07-18T14:55:20;3.22;;;2.03;;
31037;SDS011;17702;47.590;7.666;2022-07-18T14:57:46;2.28;;;1.90;;
31037;SDS011;17702;47.590;7.666;2022-07-18T15:00:12;5.03;;;2.50;;
31037;SDS011;17702;47.590;7.666;2022-07-18T15:02:38;2.38;;;1.92;;
31037;SDS011;17702;47.590;7.666;2022-07-18T15:05:04;6.45;;;2.13;;
31037;SDS011;17702;47.590;7.666;2022-07-18T15:07:31;2.17;;;2.08;;
31037;SDS011;17702;47.590;7.666;2022-07-18T15:09:57;3.88;;;2.17;;
31037;SDS011;17702;47.590;7.666;2022-07-18T15:12:23;3.83;;;2.20;;
31037;SDS011;17702;47.590;7.666;2022-07-18T15:14:48;2.80;;;2.45;;
31037;SDS011;17702;47.590;7.666;2022-07-18T15:17:14;4.28;;;2.40;;
31037;SDS011;17702;47.590;7.666;2022-07-18T15:19:41;9.18;;;2.20;;
31037;SDS011;17702;47.590;7.666;2022-07-18T15:22:06;3.45;;;2.30;;
31037;SDS011;17702;47.590;7.666;2022-07-18T15:24:32;3.63;;;1.95;;
31037;SDS011;17702;47.590;7.666;2022-07-18T15:26:58;3.30;;;2.28;;